sensor_id;sensor_type;location;lat;lon;timestamp;P1;durP1;ratioP1;P2;durP2;ratioP2
26036;SDS011;13810;48.376;10.944;2022-07-05T00:00:25;7.30;;;4.68;;
26036;SDS011;13810;48.376;10.944;2022-07-05T00:00:55;9.05;;;5.28;;
26036;SDS011;13810;48.376;10.944;2022-07-05T00:01:26;9.50;;;5.30;;
26036;SDS011;13810;48.376;10.944;2022-07-05T00:01:57;7.22;;;5.22;;
26036;SDS011;13810;48.376;10.944;2022-07-05T00:02:28;7.55;;;4.75;;
26036;SDS011;13810;48.376;10.944;2022-07-05T00:02:58;8.20;;;5.38;;
26036;SDS011;13810;48.376;10.944;2022-07-05T00:03:29;11.63;;;5.53;;
26036;SDS011;13810;48.376;10.944;2022-07-05T00:04:00;7.20;;;5.25;;
26036;SDS011;13810;48.376;10.944;2022-07-05T00:04:31;10.05;;;5.53;;
26036;SDS011;13810;48.376;10.944;2022-07-05T00:05:02;7.18;;;5.22;;
26036;SDS011;13810;48.376;10.944;2022-07-05T00:05:33;7.63;;;5.47;;
26036;SDS011;13810;48.376;10.944;2022-07-05T00:06:04;8.98;;;5.50;;
26036;SDS011;13810;48.376;10.944;2022-07-05T00:06:35;9.07;;;5.35;;
26036;SDS011;13810;48.376;10.944;2022-07-05T00:07:06;6.25;;;5.05;;
26036;SDS011;13810;48.376;10.944;2022-07-05T00:07:49;7.53;;;5.38;;
26036;SDS011;13810;48.376;10.944;2022-07-05T00:08:20;11.73;;;5.55;;
26036;SDS011;13810;48.376;10.944;2022-07-05T00:08:50;7.78;;;5.22;;
26036;SDS011;13810;48.376;10.944;2022-07-05T00:09:21;11.23;;;6.22;;
26036;SDS011;13810;48.376;10.944;2022-07-05T00:09:53;10.52;;;5.43;;
26036;SDS011;13810;48.376;10.944;2022-07-05T00:10:25;9.88;;;5.88;;
26036;SDS011;13810;48.376;10.944;2022-07-05T00:10:55;6.65;;;5.70;;
26036;SDS011;13810;48.376;10.944;2022-07-05T00:11:26;13.07;;;5.32;;
26036;SDS011;13810;48.376;10.944;2022-07-05T00:11:57;9.68;;;5.38;;
26036;SDS011;13810;48.376;10.944;2022-07-05T00:12:29;10.48;;;5.50;;
26036;SDS011;13810;48.376;10.944;2022-07-05T00:13:02;9.45;;;5.38;;
26036;SDS011;13810;48.376;10.944;2022-07-05T00:13:33;5.95;;;5.35;;
26036;SDS011;13810;48.376;10.944;2022-07-05T00:14:04;8.40;;;5.20;;
26036;SDS011;13810;48.376;10.944;2022-07-05T00:14:35;7.60;;;5.43;;
26036;SDS011;13810;48.376;10.944;2022-07-05T00:15:06;7.28;;;6.18;;
26036;SDS011;13810;48.376;10.944;2022-07-05T00:15:37;7.82;;;5.00;;
26036;SDS011;13810;48.376;10.944;2022-07-05T00:16:08;7.57;;;5.45;;
26036;SDS011;13810;48.376;10.944;2022-07-05T00:16:39;7.45;;;5.53;;
26036;SDS011;13810;48.376;10.944;2022-07-05T00:17:10;9.65;;;5.70;;
26036;SDS011;13810;48.376;10.944;2022-07-05T00:17:41;9.80;;;5.90;;
26036;SDS011;13810;48.376;10.944;2022-07-05T00:18:12;8.50;;;5.80;;
26036;SDS011;13810;48.376;10.944;2022-07-05T00:18:42;8.90;;;5.38;;
26036;SDS011;13810;48.376;10.944;2022-07-05T00:19:13;8.80;;;5.30;;
26036;SDS011;13810;48.376;10.944;2022-07-05T00:19:44;8.10;;;5.80;;
26036;SDS011;13810;48.376;10.944;2022-07-05T00:20:15;7.95;;;5.65;;
26036;SDS011;13810;48.376;10.944;2022-07-05T00:20:46;6.78;;;4.88;;
26036;SDS011;13810;48.376;10.944;2022-07-05T00:21:16;10.25;;;5.93;;
26036;SDS011;13810;48.376;10.944;2022-07-05T00:21:47;7.13;;;4.55;;
26036;SDS011;13810;48.376;10.944;2022-07-05T00:22:18;6.90;;;5.50;;
26036;SDS011;13810;48.376;10.944;2022-07-05T00:22:48;6.80;;;5.18;;
26036;SDS011;13810;48.376;10.944;2022-07-05T00:23:19;10.23;;;5.93;;
26036;SDS011;13810;48.376;10.944;2022-07-05T00:23:50;6.20;;;5.38;;
26036;SDS011;13810;48.376;10.944;2022-07-05T00:24:21;6.70;;;5.22;;
26036;SDS011;13810;48.376;10.944;2022-07-05T00:24:51;6.10;;;5.10;;
26036;SDS011;13810;48.376;10.944;2022-07-05T00:25:22;7.65;;;5.03;;
26036;SDS011;13810;48.376;10.944;2022-07-05T00:25:53;8.02;;;5.47;;
26036;SDS011;13810;48.376;10.944;2022-07-05T00:26:23;7.90;;;4.85;;
26036;SDS011;13810;48.376;10.944;2022-07-05T00:26:54;6.40;;;5.03;;
26036;SDS011;13810;48.376;10.944;2022-07-05T00:27:25;6.53;;;5.15;;
26036;SDS011;13810;48.376;10.944;2022-07-05T00:27:55;7.30;;;5.68;;
26036;SDS011;13810;48.376;10.944;2022-07-05T00:28:26;8.32;;;5.72;;
26036;SDS011;13810;48.376;10.944;2022-07-05T00:28:57;6.70;;;5.38;;
26036;SDS011;13810;48.376;10.944;2022-07-05T00:29:27;8.20;;;5.60;;
26036;SDS011;13810;48.376;10.944;2022-07-05T00:29:58;6.47;;;5.75;;
26036;SDS011;13810;48.376;10.944;2022-07-05T00:30:29;9.40;;;5.57;;
26036;SDS011;13810;48.376;10.944;2022-07-05T00:31:00;9.65;;;5.82;;
26036;SDS011;13810;48.376;10.944;2022-07-05T00:31:31;7.72;;;5.07;;
26036;SDS011;13810;48.376;10.944;2022-07-05T00:32:01;7.07;;;5.70;;
26036;SDS011;13810;48.376;10.944;2022-07-05T00:32:32;6.57;;;5.20;;
26036;SDS011;13810;48.376;10.944;2022-07-05T00:33:03;7.47;;;5.88;;
26036;SDS011;13810;48.376;10.944;2022-07-05T00:33:34;9.75;;;5.55;;
26036;SDS011;13810;48.376;10.944;2022-07-05T00:34:04;8.38;;;5.53;;
26036;SDS011;13810;48.376;10.944;2022-07-05T00:34:35;6.03;;;5.10;;
26036;SDS011;13810;48.376;10.944;2022-07-05T00:35:06;6.53;;;4.60;;
26036;SDS011;13810;48.376;10.944;2022-07-05T00:35:37;8.65;;;5.05;;
26036;SDS011;13810;48.376;10.944;2022-07-05T00:36:08;5.93;;;4.88;;
26036;SDS011;13810;48.376;10.944;2022-07-05T00:36:39;8.20;;;4.25;;
26036;SDS011;13810;48.376;10.944;2022-07-05T00:37:10;9.43;;;4.18;;
26036;SDS011;13810;48.376;10.944;2022-07-05T00:37:40;6.97;;;4.80;;
26036;SDS011;13810;48.376;10.944;2022-07-05T00:38:11;7.22;;;4.40;;
26036;SDS011;13810;48.376;10.944;2022-07-05T00:38:42;4.90;;;4.35;;
26036;SDS011;13810;48.376;10.944;2022-07-05T00:39:13;7.45;;;5.03;;
26036;SDS011;13810;48.376;10.944;2022-07-05T00:39:44;7.60;;;5.35;;
26036;SDS011;13810;48.376;10.944;2022-07-05T00:40:14;6.47;;;5.60;;
26036;SDS011;13810;48.376;10.944;2022-07-05T00:40:45;7.72;;;5.45;;
26036;SDS011;13810;48.376;10.944;2022-07-05T00:41:16;6.22;;;5.10;;
26036;SDS011;13810;48.376;10.944;2022-07-05T00:41:46;5.75;;;5.15;;
26036;SDS011;13810;48.376;10.944;2022-07-05T00:42:17;6.75;;;5.20;;
26036;SDS011;13810;48.376;10.944;2022-07-05T00:42:48;7.55;;;5.30;;
26036;SDS011;13810;48.376;10.944;2022-07-05T00:43:19;7.18;;;5.75;;
26036;SDS011;13810;48.376;10.944;2022-07-05T00:43:53;8.93;;;5.78;;
26036;SDS011;13810;48.376;10.944;2022-07-05T00:44:29;9.75;;;5.57;;
26036;SDS011;13810;48.376;10.944;2022-07-05T00:45:07;7.00;;;5.30;;
26036;SDS011;13810;48.376;10.944;2022-07-05T00:45:39;9.27;;;5.10;;
26036;SDS011;13810;48.376;10.944;2022-07-05T00:46:09;10.38;;;5.60;;
26036;SDS011;13810;48.376;10.944;2022-07-05T00:46:42;6.70;;;5.65;;
26036;SDS011;13810;48.376;10.944;2022-07-05T00:47:14;8.15;;;5.63;;
26036;SDS011;13810;48.376;10.944;2022-07-05T00:47:44;9.18;;;6.00;;
26036;SDS011;13810;48.376;10.944;2022-07-05T00:48:15;8.27;;;5.75;;
26036;SDS011;13810;48.376;10.944;2022-07-05T00:48:46;6.25;;;5.60;;
26036;SDS011;13810;48.376;10.944;2022-07-05T00:49:16;10.48;;;6.30;;
26036;SDS011;13810;48.376;10.944;2022-07-05T00:49:47;10.27;;;6.07;;
26036;SDS011;13810;48.376;10.944;2022-07-05T00:50:18;8.48;;;6.30;;
26036;SDS011;13810;48.376;10.944;2022-07-05T00:50:49;6.78;;;5.45;;
26036;SDS011;13810;48.376;10.944;2022-07-05T00:51:21;8.88;;;6.00;;
26036;SDS011;13810;48.376;10.944;2022-07-05T00:51:52;15.57;;;6.95;;
26036;SDS011;13810;48.376;10.944;2022-07-05T00:52:23;9.35;;;6.00;;
26036;SDS011;13810;48.376;10.944;2022-07-05T00:52:54;7.90;;;6.15;;
26036;SDS011;13810;48.376;10.944;2022-07-05T00:53:25;12.32;;;6.70;;
26036;SDS011;13810;48.376;10.944;2022-07-05T00:53:58;10.35;;;6.43;;
26036;SDS011;13810;48.376;10.944;2022-07-05T00:54:29;6.95;;;6.22;;
26036;SDS011;13810;48.376;10.944;2022-07-05T00:55:03;8.05;;;6.10;;
26036;SDS011;13810;48.376;10.944;2022-07-05T00:55:34;11.27;;;6.45;;
26036;SDS011;13810;48.376;10.944;2022-07-05T00:56:05;8.15;;;6.13;;
26036;SDS011;13810;48.376;10.944;2022-07-05T00:56:36;8.07;;;6.03;;
26036;SDS011;13810;48.376;10.944;2022-07-05T00:57:07;6.70;;;5.57;;
26036;SDS011;13810;48.376;10.944;2022-07-05T00:57:38;10.07;;;6.03;;
26036;SDS011;13810;48.376;10.944;2022-07-05T00:58:09;9.27;;;6.05;;
26036;SDS011;13810;48.376;10.944;2022-07-05T00:58:40;9.90;;;5.68;;
26036;SDS011;13810;48.376;10.944;2022-07-05T00:59:11;9.35;;;5.70;;
26036;SDS011;13810;48.376;10.944;2022-07-05T00:59:42;8.38;;;6.07;;
26036;SDS011;13810;48.376;10.944;2022-07-05T01:00:13;9.55;;;5.82;;
26036;SDS011;13810;48.376;10.944;2022-07-05T01:00:44;7.82;;;6.00;;
26036;SDS011;13810;48.376;10.944;2022-07-05T01:01:15;8.10;;;5.75;;
26036;SDS011;13810;48.376;10.944;2022-07-05T01:01:46;6.35;;;5.70;;
26036;SDS011;13810;48.376;10.944;2022-07-05T01:02:17;6.43;;;5.78;;
26036;SDS011;13810;48.376;10.944;2022-07-05T01:02:50;9.18;;;5.53;;
26036;SDS011;13810;48.376;10.944;2022-07-05T01:03:21;6.93;;;5.75;;
26036;SDS011;13810;48.376;10.944;2022-07-05T01:03:51;10.65;;;6.03;;
26036;SDS011;13810;48.376;10.944;2022-07-05T01:04:22;6.82;;;5.75;;
26036;SDS011;13810;48.376;10.944;2022-07-05T01:04:53;6.82;;;5.47;;
26036;SDS011;13810;48.376;10.944;2022-07-05T01:05:24;7.38;;;5.22;;
26036;SDS011;13810;48.376;10.944;2022-07-05T01:05:55;6.78;;;5.30;;
26036;SDS011;13810;48.376;10.944;2022-07-05T01:06:26;7.03;;;5.05;;
26036;SDS011;13810;48.376;10.944;2022-07-05T01:06:56;6.93;;;5.65;;
26036;SDS011;13810;48.376;10.944;2022-07-05T01:07:27;6.97;;;5.85;;
26036;SDS011;13810;48.376;10.944;2022-07-05T01:07:59;8.38;;;5.90;;
26036;SDS011;13810;48.376;10.944;2022-07-05T01:08:30;8.55;;;5.13;;
26036;SDS011;13810;48.376;10.944;2022-07-05T01:09:04;5.22;;;4.72;;
26036;SDS011;13810;48.376;10.944;2022-07-05T01:09:35;8.23;;;5.20;;
26036;SDS011;13810;48.376;10.944;2022-07-05T01:10:06;6.90;;;5.63;;
26036;SDS011;13810;48.376;10.944;2022-07-05T01:10:37;8.27;;;5.70;;
26036;SDS011;13810;48.376;10.944;2022-07-05T01:11:09;8.25;;;5.50;;
26036;SDS011;13810;48.376;10.944;2022-07-05T01:11:40;10.13;;;5.10;;
26036;SDS011;13810;48.376;10.944;2022-07-05T01:12:16;6.32;;;5.00;;
26036;SDS011;13810;48.376;10.944;2022-07-05T01:12:47;7.38;;;5.93;;
26036;SDS011;13810;48.376;10.944;2022-07-05T01:13:18;7.35;;;5.90;;
26036;SDS011;13810;48.376;10.944;2022-07-05T01:13:49;8.65;;;6.30;;
26036;SDS011;13810;48.376;10.944;2022-07-05T01:14:21;8.52;;;6.13;;
26036;SDS011;13810;48.376;10.944;2022-07-05T01:14:52;8.38;;;5.63;;
26036;SDS011;13810;48.376;10.944;2022-07-05T01:15:25;8.30;;;6.38;;
26036;SDS011;13810;48.376;10.944;2022-07-05T01:15:57;7.95;;;6.47;;
26036;SDS011;13810;48.376;10.944;2022-07-05T01:16:28;9.07;;;6.50;;
26036;SDS011;13810;48.376;10.944;2022-07-05T01:16:59;10.93;;;6.25;;
26036;SDS011;13810;48.376;10.944;2022-07-05T01:17:29;9.20;;;6.22;;
26036;SDS011;13810;48.376;10.944;2022-07-05T01:18:00;9.45;;;6.20;;
26036;SDS011;13810;48.376;10.944;2022-07-05T01:18:32;10.35;;;6.75;;
26036;SDS011;13810;48.376;10.944;2022-07-05T01:19:03;10.77;;;6.47;;
26036;SDS011;13810;48.376;10.944;2022-07-05T01:19:36;7.93;;;6.38;;
26036;SDS011;13810;48.376;10.944;2022-07-05T01:20:08;9.77;;;6.28;;
26036;SDS011;13810;48.376;10.944;2022-07-05T01:20:39;10.90;;;6.45;;
26036;SDS011;13810;48.376;10.944;2022-07-05T01:21:12;9.90;;;6.38;;
26036;SDS011;13810;48.376;10.944;2022-07-05T01:21:46;9.40;;;6.78;;
26036;SDS011;13810;48.376;10.944;2022-07-05T01:22:19;11.00;;;6.97;;
26036;SDS011;13810;48.376;10.944;2022-07-05T01:22:51;10.18;;;6.50;;
26036;SDS011;13810;48.376;10.944;2022-07-05T01:23:26;11.32;;;6.50;;
26036;SDS011;13810;48.376;10.944;2022-07-05T01:23:57;11.07;;;6.35;;
26036;SDS011;13810;48.376;10.944;2022-07-05T01:24:28;9.13;;;6.40;;
26036;SDS011;13810;48.376;10.944;2022-07-05T01:24:59;11.65;;;7.30;;
26036;SDS011;13810;48.376;10.944;2022-07-05T01:25:30;10.85;;;6.65;;
26036;SDS011;13810;48.376;10.944;2022-07-05T01:26:01;11.82;;;6.45;;
26036;SDS011;13810;48.376;10.944;2022-07-05T01:26:35;10.15;;;6.78;;
26036;SDS011;13810;48.376;10.944;2022-07-05T01:27:06;10.32;;;6.22;;
26036;SDS011;13810;48.376;10.944;2022-07-05T01:27:37;8.68;;;6.32;;
26036;SDS011;13810;48.376;10.944;2022-07-05T01:28:08;6.57;;;5.85;;
26036;SDS011;13810;48.376;10.944;2022-07-05T01:28:39;10.23;;;6.95;;
26036;SDS011;13810;48.376;10.944;2022-07-05T01:29:09;8.45;;;6.03;;
26036;SDS011;13810;48.376;10.944;2022-07-05T01:29:41;10.52;;;6.57;;
26036;SDS011;13810;48.376;10.944;2022-07-05T01:30:12;10.10;;;6.50;;
26036;SDS011;13810;48.376;10.944;2022-07-05T01:30:44;10.65;;;6.38;;
26036;SDS011;13810;48.376;10.944;2022-07-05T01:31:15;8.20;;;6.60;;
26036;SDS011;13810;48.376;10.944;2022-07-05T01:31:46;7.40;;;5.35;;
26036;SDS011;13810;48.376;10.944;2022-07-05T01:32:17;10.15;;;6.05;;
26036;SDS011;13810;48.376;10.944;2022-07-05T01:32:48;8.77;;;7.00;;
26036;SDS011;13810;48.376;10.944;2022-07-05T01:33:19;9.52;;;6.60;;
26036;SDS011;13810;48.376;10.944;2022-07-05T01:33:57;9.50;;;5.75;;
26036;SDS011;13810;48.376;10.944;2022-07-05T01:34:29;8.23;;;5.97;;
26036;SDS011;13810;48.376;10.944;2022-07-05T01:34:59;9.20;;;5.88;;
26036;SDS011;13810;48.376;10.944;2022-07-05T01:35:30;10.10;;;6.20;;
26036;SDS011;13810;48.376;10.944;2022-07-05T01:36:01;9.95;;;6.00;;
26036;SDS011;13810;48.376;10.944;2022-07-05T01:36:32;10.77;;;5.88;;
26036;SDS011;13810;48.376;10.944;2022-07-05T01:37:04;9.25;;;5.75;;
26036;SDS011;13810;48.376;10.944;2022-07-05T01:37:35;9.63;;;5.88;;
26036;SDS011;13810;48.376;10.944;2022-07-05T01:38:06;9.73;;;5.63;;
26036;SDS011;13810;48.376;10.944;2022-07-05T01:38:37;7.93;;;5.47;;
26036;SDS011;13810;48.376;10.944;2022-07-05T01:39:08;9.98;;;5.97;;
26036;SDS011;13810;48.376;10.944;2022-07-05T01:39:39;7.70;;;5.68;;
26036;SDS011;13810;48.376;10.944;2022-07-05T01:40:09;8.43;;;5.35;;
26036;SDS011;13810;48.376;10.944;2022-07-05T01:40:40;10.32;;;6.05;;
26036;SDS011;13810;48.376;10.944;2022-07-05T01:41:11;12.25;;;5.40;;
26036;SDS011;13810;48.376;10.944;2022-07-05T01:41:42;7.00;;;5.88;;
26036;SDS011;13810;48.376;10.944;2022-07-05T01:42:13;6.93;;;6.10;;
26036;SDS011;13810;48.376;10.944;2022-07-05T01:42:44;10.73;;;5.78;;
26036;SDS011;13810;48.376;10.944;2022-07-05T01:43:15;9.05;;;5.63;;
26036;SDS011;13810;48.376;10.944;2022-07-05T01:43:46;7.95;;;5.43;;
26036;SDS011;13810;48.376;10.944;2022-07-05T01:44:16;6.03;;;5.40;;
26036;SDS011;13810;48.376;10.944;2022-07-05T01:44:47;11.25;;;6.50;;
26036;SDS011;13810;48.376;10.944;2022-07-05T01:45:18;9.82;;;6.20;;
26036;SDS011;13810;48.376;10.944;2022-07-05T01:46:08;8.18;;;5.30;;
26036;SDS011;13810;48.376;10.944;2022-07-05T01:46:41;8.68;;;5.85;;
26036;SDS011;13810;48.376;10.944;2022-07-05T01:47:13;9.68;;;6.10;;
26036;SDS011;13810;48.376;10.944;2022-07-05T01:47:46;7.43;;;5.57;;
26036;SDS011;13810;48.376;10.944;2022-07-05T01:48:19;7.07;;;5.38;;
26036;SDS011;13810;48.376;10.944;2022-07-05T01:48:53;7.80;;;5.57;;
26036;SDS011;13810;48.376;10.944;2022-07-05T01:49:28;8.32;;;6.07;;
26036;SDS011;13810;48.376;10.944;2022-07-05T01:50:00;11.38;;;6.65;;
26036;SDS011;13810;48.376;10.944;2022-07-05T01:51:20;9.13;;;5.28;;
26036;SDS011;13810;48.376;10.944;2022-07-05T01:51:57;8.60;;;6.15;;
26036;SDS011;13810;48.376;10.944;2022-07-05T01:52:32;12.32;;;6.22;;
26036;SDS011;13810;48.376;10.944;2022-07-05T01:53:08;7.55;;;5.10;;
26036;SDS011;13810;48.376;10.944;2022-07-05T01:53:41;13.48;;;5.93;;
26036;SDS011;13810;48.376;10.944;2022-07-05T01:54:13;12.57;;;6.00;;
26036;SDS011;13810;48.376;10.944;2022-07-05T01:54:44;12.07;;;6.32;;
26036;SDS011;13810;48.376;10.944;2022-07-05T01:55:15;9.13;;;5.43;;
26036;SDS011;13810;48.376;10.944;2022-07-05T01:55:46;9.23;;;6.18;;
26036;SDS011;13810;48.376;10.944;2022-07-05T01:56:17;10.48;;;6.55;;
26036;SDS011;13810;48.376;10.944;2022-07-05T01:56:47;11.00;;;6.75;;
26036;SDS011;13810;48.376;10.944;2022-07-05T01:57:18;9.93;;;6.60;;
26036;SDS011;13810;48.376;10.944;2022-07-05T01:57:49;10.77;;;6.57;;
26036;SDS011;13810;48.376;10.944;2022-07-05T01:58:20;8.43;;;6.68;;
26036;SDS011;13810;48.376;10.944;2022-07-05T01:58:51;10.65;;;6.50;;
26036;SDS011;13810;48.376;10.944;2022-07-05T01:59:23;9.88;;;6.88;;
26036;SDS011;13810;48.376;10.944;2022-07-05T01:59:54;12.40;;;6.90;;
26036;SDS011;13810;48.376;10.944;2022-07-05T02:00:25;7.30;;;5.95;;
26036;SDS011;13810;48.376;10.944;2022-07-05T02:00:55;9.23;;;7.47;;
26036;SDS011;13810;48.376;10.944;2022-07-05T02:01:37;10.13;;;7.47;;
26036;SDS011;13810;48.376;10.944;2022-07-05T02:02:08;9.40;;;6.50;;
26036;SDS011;13810;48.376;10.944;2022-07-05T02:02:40;11.68;;;6.88;;
26036;SDS011;13810;48.376;10.944;2022-07-05T02:03:12;8.75;;;6.53;;
26036;SDS011;13810;48.376;10.944;2022-07-05T02:03:43;11.80;;;7.63;;
26036;SDS011;13810;48.376;10.944;2022-07-05T02:04:14;10.20;;;7.13;;
26036;SDS011;13810;48.376;10.944;2022-07-05T02:04:46;8.85;;;6.30;;
26036;SDS011;13810;48.376;10.944;2022-07-05T02:05:17;12.00;;;6.82;;
26036;SDS011;13810;48.376;10.944;2022-07-05T02:05:48;9.85;;;6.35;;
26036;SDS011;13810;48.376;10.944;2022-07-05T02:06:19;8.70;;;6.38;;
26036;SDS011;13810;48.376;10.944;2022-07-05T02:06:50;7.75;;;5.90;;
26036;SDS011;13810;48.376;10.944;2022-07-05T02:07:21;10.02;;;6.13;;
26036;SDS011;13810;48.376;10.944;2022-07-05T02:07:51;10.50;;;6.72;;
26036;SDS011;13810;48.376;10.944;2022-07-05T02:08:26;10.05;;;6.65;;
26036;SDS011;13810;48.376;10.944;2022-07-05T02:08:59;12.15;;;7.28;;
26036;SDS011;13810;48.376;10.944;2022-07-05T02:09:31;11.18;;;7.35;;
26036;SDS011;13810;48.376;10.944;2022-07-05T02:10:02;9.65;;;6.78;;
26036;SDS011;13810;48.376;10.944;2022-07-05T02:10:36;13.57;;;6.35;;
26036;SDS011;13810;48.376;10.944;2022-07-05T02:11:08;7.63;;;6.18;;
26036;SDS011;13810;48.376;10.944;2022-07-05T02:11:38;8.93;;;6.68;;
26036;SDS011;13810;48.376;10.944;2022-07-05T02:12:10;12.18;;;7.88;;
26036;SDS011;13810;48.376;10.944;2022-07-05T02:12:41;9.65;;;6.88;;
26036;SDS011;13810;48.376;10.944;2022-07-05T02:13:12;13.50;;;7.90;;
26036;SDS011;13810;48.376;10.944;2022-07-05T02:13:44;10.57;;;7.13;;
26036;SDS011;13810;48.376;10.944;2022-07-05T02:14:15;8.57;;;7.22;;
26036;SDS011;13810;48.376;10.944;2022-07-05T02:14:46;10.75;;;6.93;;
26036;SDS011;13810;48.376;10.944;2022-07-05T02:15:16;11.68;;;7.55;;
26036;SDS011;13810;48.376;10.944;2022-07-05T02:15:47;10.30;;;6.68;;
26036;SDS011;13810;48.376;10.944;2022-07-05T02:16:21;10.45;;;7.65;;
26036;SDS011;13810;48.376;10.944;2022-07-05T02:16:52;12.02;;;7.50;;
26036;SDS011;13810;48.376;10.944;2022-07-05T02:17:23;11.90;;;7.15;;
26036;SDS011;13810;48.376;10.944;2022-07-05T02:17:54;13.38;;;6.57;;
26036;SDS011;13810;48.376;10.944;2022-07-05T02:18:24;9.35;;;6.40;;
26036;SDS011;13810;48.376;10.944;2022-07-05T02:18:55;9.25;;;6.93;;
26036;SDS011;13810;48.376;10.944;2022-07-05T02:19:25;10.55;;;6.95;;
26036;SDS011;13810;48.376;10.944;2022-07-05T02:19:56;9.20;;;6.38;;
26036;SDS011;13810;48.376;10.944;2022-07-05T02:20:28;14.02;;;6.82;;
26036;SDS011;13810;48.376;10.944;2022-07-05T02:20:59;14.95;;;7.38;;
26036;SDS011;13810;48.376;10.944;2022-07-05T02:21:30;13.38;;;7.50;;
26036;SDS011;13810;48.376;10.944;2022-07-05T02:22:01;12.68;;;6.97;;
26036;SDS011;13810;48.376;10.944;2022-07-05T02:22:32;13.18;;;7.32;;
26036;SDS011;13810;48.376;10.944;2022-07-05T02:23:03;15.48;;;7.78;;
26036;SDS011;13810;48.376;10.944;2022-07-05T02:23:34;12.57;;;7.00;;
26036;SDS011;13810;48.376;10.944;2022-07-05T02:24:05;13.73;;;7.30;;
26036;SDS011;13810;48.376;10.944;2022-07-05T02:24:36;17.40;;;6.97;;
26036;SDS011;13810;48.376;10.944;2022-07-05T02:25:07;15.23;;;6.80;;
26036;SDS011;13810;48.376;10.944;2022-07-05T02:25:38;20.25;;;7.35;;
26036;SDS011;13810;48.376;10.944;2022-07-05T02:26:08;16.83;;;7.50;;
26036;SDS011;13810;48.376;10.944;2022-07-05T02:26:39;24.75;;;7.60;;
26036;SDS011;13810;48.376;10.944;2022-07-05T02:27:10;20.10;;;8.13;;
26036;SDS011;13810;48.376;10.944;2022-07-05T02:27:40;20.67;;;7.60;;
26036;SDS011;13810;48.376;10.944;2022-07-05T02:28:11;17.42;;;7.50;;
26036;SDS011;13810;48.376;10.944;2022-07-05T02:28:42;14.23;;;7.60;;
26036;SDS011;13810;48.376;10.944;2022-07-05T02:29:13;20.08;;;7.93;;
26036;SDS011;13810;48.376;10.944;2022-07-05T02:29:43;12.82;;;6.80;;
26036;SDS011;13810;48.376;10.944;2022-07-05T02:30:14;10.98;;;7.38;;
26036;SDS011;13810;48.376;10.944;2022-07-05T02:30:45;16.88;;;7.30;;
26036;SDS011;13810;48.376;10.944;2022-07-05T02:31:16;13.45;;;7.13;;
26036;SDS011;13810;48.376;10.944;2022-07-05T02:31:46;12.32;;;7.40;;
26036;SDS011;13810;48.376;10.944;2022-07-05T02:32:17;14.07;;;7.30;;
26036;SDS011;13810;48.376;10.944;2022-07-05T02:32:48;14.57;;;7.35;;
26036;SDS011;13810;48.376;10.944;2022-07-05T02:33:18;10.25;;;6.93;;
26036;SDS011;13810;48.376;10.944;2022-07-05T02:33:49;14.48;;;7.28;;
26036;SDS011;13810;48.376;10.944;2022-07-05T02:34:20;13.43;;;7.32;;
26036;SDS011;13810;48.376;10.944;2022-07-05T02:34:50;9.43;;;6.70;;
26036;SDS011;13810;48.376;10.944;2022-07-05T02:35:21;10.27;;;6.32;;
26036;SDS011;13810;48.376;10.944;2022-07-05T02:35:52;12.07;;;6.93;;
26036;SDS011;13810;48.376;10.944;2022-07-05T02:36:23;10.13;;;7.50;;
26036;SDS011;13810;48.376;10.944;2022-07-05T02:36:54;10.88;;;6.95;;
26036;SDS011;13810;48.376;10.944;2022-07-05T02:37:24;10.50;;;7.05;;
26036;SDS011;13810;48.376;10.944;2022-07-05T02:37:57;8.35;;;6.72;;
26036;SDS011;13810;48.376;10.944;2022-07-05T02:38:27;10.95;;;7.15;;
26036;SDS011;13810;48.376;10.944;2022-07-05T02:38:58;8.40;;;7.15;;
26036;SDS011;13810;48.376;10.944;2022-07-05T02:39:29;14.05;;;7.10;;
26036;SDS011;13810;48.376;10.944;2022-07-05T02:39:59;9.60;;;7.82;;
26036;SDS011;13810;48.376;10.944;2022-07-05T02:40:30;14.00;;;7.25;;
26036;SDS011;13810;48.376;10.944;2022-07-05T02:41:03;17.65;;;7.53;;
26036;SDS011;13810;48.376;10.944;2022-07-05T02:41:35;11.57;;;7.65;;
26036;SDS011;13810;48.376;10.944;2022-07-05T02:42:05;13.38;;;7.18;;
26036;SDS011;13810;48.376;10.944;2022-07-05T02:42:37;11.43;;;7.20;;
26036;SDS011;13810;48.376;10.944;2022-07-05T02:43:08;10.40;;;7.38;;
26036;SDS011;13810;48.376;10.944;2022-07-05T02:43:39;10.63;;;8.13;;
26036;SDS011;13810;48.376;10.944;2022-07-05T02:44:10;8.68;;;6.63;;
26036;SDS011;13810;48.376;10.944;2022-07-05T02:44:43;11.15;;;5.88;;
26036;SDS011;13810;48.376;10.944;2022-07-05T02:45:14;14.48;;;7.20;;
26036;SDS011;13810;48.376;10.944;2022-07-05T02:45:45;9.25;;;7.25;;
26036;SDS011;13810;48.376;10.944;2022-07-05T02:46:16;12.38;;;7.30;;
26036;SDS011;13810;48.376;10.944;2022-07-05T02:46:46;21.23;;;7.82;;
26036;SDS011;13810;48.376;10.944;2022-07-05T02:47:17;9.00;;;6.50;;
26036;SDS011;13810;48.376;10.944;2022-07-05T02:47:48;15.32;;;6.78;;
26036;SDS011;13810;48.376;10.944;2022-07-05T02:48:19;14.02;;;7.25;;
26036;SDS011;13810;48.376;10.944;2022-07-05T02:48:50;8.50;;;6.93;;
26036;SDS011;13810;48.376;10.944;2022-07-05T02:49:22;10.05;;;6.82;;
26036;SDS011;13810;48.376;10.944;2022-07-05T02:49:53;9.35;;;7.15;;
26036;SDS011;13810;48.376;10.944;2022-07-05T02:50:24;9.38;;;6.38;;
26036;SDS011;13810;48.376;10.944;2022-07-05T02:50:55;9.45;;;7.03;;
26036;SDS011;13810;48.376;10.944;2022-07-05T02:51:26;13.27;;;7.35;;
26036;SDS011;13810;48.376;10.944;2022-07-05T02:51:57;14.60;;;7.47;;
26036;SDS011;13810;48.376;10.944;2022-07-05T02:52:27;9.20;;;7.18;;
26036;SDS011;13810;48.376;10.944;2022-07-05T02:52:58;12.55;;;7.60;;
26036;SDS011;13810;48.376;10.944;2022-07-05T02:53:32;9.90;;;7.05;;
26036;SDS011;13810;48.376;10.944;2022-07-05T02:54:04;9.73;;;7.40;;
26036;SDS011;13810;48.376;10.944;2022-07-05T02:54:35;18.30;;;6.90;;
26036;SDS011;13810;48.376;10.944;2022-07-05T02:55:06;8.35;;;6.63;;
26036;SDS011;13810;48.376;10.944;2022-07-05T02:55:37;14.38;;;7.18;;
26036;SDS011;13810;48.376;10.944;2022-07-05T02:56:07;15.15;;;7.28;;
26036;SDS011;13810;48.376;10.944;2022-07-05T02:56:38;16.55;;;7.53;;
26036;SDS011;13810;48.376;10.944;2022-07-05T02:57:09;12.00;;;7.47;;
26036;SDS011;13810;48.376;10.944;2022-07-05T02:57:40;15.85;;;7.32;;
26036;SDS011;13810;48.376;10.944;2022-07-05T02:58:11;12.60;;;7.32;;
26036;SDS011;13810;48.376;10.944;2022-07-05T02:58:41;16.80;;;7.22;;
26036;SDS011;13810;48.376;10.944;2022-07-05T02:59:12;11.73;;;7.72;;
26036;SDS011;13810;48.376;10.944;2022-07-05T02:59:45;10.20;;;6.82;;
26036;SDS011;13810;48.376;10.944;2022-07-05T03:00:16;9.32;;;6.85;;
26036;SDS011;13810;48.376;10.944;2022-07-05T03:00:47;12.43;;;7.95;;
26036;SDS011;13810;48.376;10.944;2022-07-05T03:01:19;10.65;;;7.43;;
26036;SDS011;13810;48.376;10.944;2022-07-05T03:01:50;12.05;;;7.18;;
26036;SDS011;13810;48.376;10.944;2022-07-05T03:02:23;11.10;;;7.97;;
26036;SDS011;13810;48.376;10.944;2022-07-05T03:02:54;15.75;;;7.35;;
26036;SDS011;13810;48.376;10.944;2022-07-05T03:03:25;12.77;;;7.25;;
26036;SDS011;13810;48.376;10.944;2022-07-05T03:03:56;13.32;;;7.38;;
26036;SDS011;13810;48.376;10.944;2022-07-05T03:04:28;13.77;;;7.55;;
26036;SDS011;13810;48.376;10.944;2022-07-05T03:04:59;14.27;;;7.82;;
26036;SDS011;13810;48.376;10.944;2022-07-05T03:05:30;14.93;;;7.45;;
26036;SDS011;13810;48.376;10.944;2022-07-05T03:06:01;17.42;;;7.15;;